Time,TemperatureF,DewpointF,PressureIn,WindDirection,WindDirectionDegrees,WindSpeedMPH,WindSpeedGustMPH,Humidity,HourlyPrecipIn,Conditions,Clouds,dailyrainin,SolarRadiationWatts/m^2,SoftwareType,DateUTC
2013-04-02 00:04:00,65.8,52.9,30.06,ENE,68,1.4,2.0,63,0.00,SCT,BKN,0.00,0.0,WeatherDisplay:10.37,2013-04-02 10:04:00,
2013-04-02 00:09:00,65.8,52.9,30.06,East,90,0.0,1.2,63,0.00,SCT,BKN,0.00,0.0,WeatherDisplay:10.37,2013-04-02 10:09:00,
2013-04-02 00:14:00,65.8,52.9,30.06,NNE,22,1.6,2.3,63,0.00,SCT,BKN,0.00,0.0,WeatherDisplay:10.37,2013-04-02 10:14:00,
2013-04-02 00:19:00,65.7,53.1,30.06,SE,135,2.0,3.5,64,0.00,SCT,BKN,0.00,0.0,WeatherDisplay:10.37,2013-04-02 10:19:00,
2013-04-02 00:24:00,65.5,53.0,30.06,NNW,338,0.0,0.0,64,0.00,SCT,BKN,0.00,0.0,WeatherDisplay:10.37,2013-04-02 10:24:00,
2013-04-02 00:29:00,65.1,52.6,30.06,ENE,68,0.0,0.0,64,0.00,SCT,BKN,0.00,0.0,WeatherDisplay:10.37,2013-04-02 10:29:00,
2013-04-02 00:34:00,64.6,52.5,30.06,NE,45,0.0,0.0,65,0.00,SCT,BKN,0.00,0.0,WeatherDisplay:10.37,2013-04-02 10:34:00,
2013-04-02 00:39:00,64.2,52.6,30.06,East,90,0.9,1.4,66,0.00,SCT,BKN,0.00,0.0,WeatherDisplay:10.37,2013-04-02 10:39:00,
2013-04-02 00:44:00,64.0,52.4,30.06,East,90,0.0,0.0,66,0.00,SCT,BKN,0.00,0.0,WeatherDisplay:10.37,2013-04-02 10:44:00,
2013-04-02 00:49:00,64.2,53.0,30.06,East,90,1.6,2.3,67,0.00,SCT,BKN,0.00,0.0,WeatherDisplay:10.37,2013-04-02 10:49:00,
2013-04-02 00:54:00,64.4,52.8,30.06,East,90,0.0,1.2,66,0.00,SCT,BKN,0.00,0.0,WeatherDisplay:10.37,2013-04-02 10:54:00,
2013-04-02 00:59:00,64.4,52.4,30.06,East,90,0.0,0.0,65,0.00,SCT,BKN,0.00,0.0,WeatherDisplay:10.37,2013-04-02 10:59:00,
2013-04-02 01:04:00,64.0,52.4,30.06,ENE,68,1.6,2.3,66,0.00,SCT,BKN,0.00,0.0,WeatherDisplay:10.37,2013-04-02 11:04:00,
2013-04-02 01:09:00,64.4,52.0,30.06,ENE,68,2.4,2.4,64,0.00,SCT,BKN,0.00,0.0,WeatherDisplay:10.37,2013-04-02 11:09:00,
2013-04-02 01:14:00,64.8,51.9,30.06,ENE,68,2.0,2.3,63,0.00,SCT,BKN,0.00,0.0,WeatherDisplay:10.37,2013-04-02 11:14:00,
2013-04-02 01:19:00,64.8,51.9,30.03,ENE,68,0.9,2.4,63,0.00,SCT,BKN,0.00,0.0,WeatherDisplay:10.37,2013-04-02 11:19:00,
2013-04-02 01:24:00,64.8,51.4,30.03,ENE,68,3.1,3.6,62,0.00,SCT,BKN,0.00,0.0,WeatherDisplay:10.37,2013-04-02 11:24:00,
2013-04-02 01:29:00,64.9,51.2,30.03,ENE,68,2.9,4.6,61,0.00,SCT,BKN,0.00,0.0,WeatherDisplay:10.37,2013-04-02 11:29:00,
2013-04-02 01:34:00,65.3,51.5,30.03,ENE,68,1.2,2.3,61,0.00,SCT,BKN,0.00,0.0,WeatherDisplay:10.37,2013-04-02 11:34:00,
2013-04-02 01:39:00,65.1,51.8,30.03,NE,45,2.2,2.9,62,0.00,SCT,BKN,0.00,0.0,WeatherDisplay:10.37,2013-04-02 11:39:00,
2013-04-02 01:44:00,65.1,51.8,30.03,ENE,68,2.2,2.6,62,0.00,SCT,BKN,0.00,0.0,WeatherDisplay:10.37,2013-04-02 11:44:00,
2013-04-02 01:49:00,64.9,52.0,30.03,NE,45,0.0,2.3,63,0.00,SCT,BKN,0.00,0.0,WeatherDisplay:10.37,2013-04-02 11:49:00,
2013-04-02 01:54:00,64.9,52.0,30.03,East,90,2.0,5.8,63,0.00,SCT,BKN,0.00,0.0,WeatherDisplay:10.37,2013-04-02 11:54:00,
2013-04-02 01:59:00,64.9,52.0,30.03,East,90,1.4,2.3,63,0.00,SCT,BKN,0.00,0.0,WeatherDisplay:10.37,2013-04-02 11:59:00,
2013-04-02 02:04:00,64.8,51.9,30.03,ENE,68,1.6,2.3,63,0.00,SCT,BKN,0.00,0.0,WeatherDisplay:10.37,2013-04-02 12:04:00,
2013-04-02 02:09:00,64.9,52.0,30.03,ESE,112,1.4,3.5,63,0.00,SCT,BKN,0.00,0.0,WeatherDisplay:10.37,2013-04-02 12:09:00,
2013-04-02 02:14:00,64.8,51.9,30.03,NW,315,1.6,4.6,63,0.00,SCT,BKN,0.00,0.0,WeatherDisplay:10.37,2013-04-02 12:14:00,
2013-04-02 02:19:00,64.8,51.9,30.03,NNW,338,0.9,2.3,63,0.00,SCT,BKN,0.00,0.0,WeatherDisplay:10.37,2013-04-02 12:19:00,
2013-04-02 02:24:00,64.6,51.3,30.03,NE,45,2.9,3.5,62,0.00,SCT,BKN,0.00,0.0,WeatherDisplay:10.37,2013-04-02 12:24:00,
2013-04-02 02:29:00,64.9,50.7,30.03,ENE,68,2.0,2.3,60,0.00,SCT,BKN,0.00,0.0,WeatherDisplay:10.37,2013-04-02 12:29:00,
2013-04-02 02:34:00,64.9,50.7,30.00,ESE,112,2.4,3.5,60,0.00,SCT,BKN,0.00,0.0,WeatherDisplay:10.37,2013-04-02 12:34:00,
2013-04-02 02:39:00,65.1,50.9,30.00,ENE,68,2.6,4.6,60,0.00,SCT,BKN,0.00,0.0,WeatherDisplay:10.37,2013-04-02 12:39:00,
2013-04-02 02:44:00,64.8,50.5,30.00,NE,45,1.6,2.4,60,0.00,SCT,BKN,0.00,0.0,WeatherDisplay:10.37,2013-04-02 12:44:00,
2013-04-02 02:49:00,64.8,50.5,30.00,NE,45,1.2,2.3,60,0.00,SCT,BKN,0.00,0.0,WeatherDisplay:10.37,2013-04-02 12:49:00,
2013-04-02 02:54:00,64.8,51.0,30.00,East,90,1.2,2.3,61,0.00,SCT,BKN,0.00,0.0,WeatherDisplay:10.37,2013-04-02 12:54:00,
2013-04-02 02:59:00,64.4,50.7,30.00,SE,135,0.0,2.3,61,0.00,SCT,BKN,0.00,0.0,WeatherDisplay:10.37,2013-04-02 12:59:00,
2013-04-02 03:04:00,64.2,50.9,30.03,SE,135,0.0,2.3,62,0.00,SCT,BKN,0.00,0.0,WeatherDisplay:10.37,2013-04-02 13:04:00,
2013-04-02 03:09:00,64.2,50.9,30.03,ENE,68,1.4,1.4,62,0.00,SCT,BKN,0.00,0.0,WeatherDisplay:10.37,2013-04-02 13:09:00,
2013-04-02 03:14:00,64.2,50.9,30.03,East,90,1.4,2.3,62,0.00,SCT,BKN,0.00,0.0,WeatherDisplay:10.37,2013-04-02 13:14:00,
2013-04-02 03:19:00,64.4,51.1,30.00,NE,45,1.6,3.1,62,0.00,SCT,BKN,0.00,0.0,WeatherDisplay:10.37,2013-04-02 13:19:00,
2013-04-02 03:24:00,64.4,51.1,30.00,ENE,68,1.6,3.5,62,0.00,SCT,BKN,0.00,0.0,WeatherDisplay:10.37,2013-04-02 13:24:00,
2013-04-02 03:29:00,64.6,50.8,30.00,ENE,68,2.4,2.4,61,0.00,SCT,BKN,0.00,0.0,WeatherDisplay:10.37,2013-04-02 13:29:00,
2013-04-02 03:34:00,64.4,50.2,30.00,ENE,68,0.0,2.3,60,0.00,SCT,BKN,0.00,0.0,WeatherDisplay:10.37,2013-04-02 13:34:00,
2013-04-02 03:39:00,64.4,50.2,30.00,East,90,1.2,1.2,60,0.00,SCT,BKN,0.00,0.0,WeatherDisplay:10.37,2013-04-02 13:39:00,
2013-04-02 03:44:00,64.2,50.0,30.00,ESE,112,1.4,3.5,60,0.00,SCT,BKN,0.00,0.0,WeatherDisplay:10.37,2013-04-02 13:44:00,
2013-04-02 03:49:00,64.4,49.8,30.00,ENE,68,2.9,4.6,59,0.00,SCT,BKN,0.00,0.0,WeatherDisplay:10.37,2013-04-02 13:49:00,
2013-04-02 03:54:00,64.6,49.9,30.00,ESE,112,2.6,4.6,59,0.00,SCT,BKN,0.00,0.0,WeatherDisplay:10.37,2013-04-02 13:54:00,
2013-04-02 03:59:00,64.4,49.8,30.00,ENE,68,2.2,2.3,59,0.00,SCT,BKN,0.00,0.0,WeatherDisplay:10.37,2013-04-02 13:59:00,
2013-04-02 04:04:00,64.2,49.6,30.00,NNE,22,1.2,3.6,59,0.00,SCT,BKN,0.00,0.0,WeatherDisplay:10.37,2013-04-02 14:04:00,
2013-04-02 04:09:00,64.4,49.8,30.00,NW,315,0.0,4.6,59,0.00,SCT,BKN,0.00,0.0,WeatherDisplay:10.37,2013-04-02 14:09:00,
2013-04-02 04:14:00,64.4,50.2,30.00,ENE,68,0.0,2.3,60,0.00,SCT,BKN,0.00,0.0,WeatherDisplay:10.37,2013-04-02 14:14:00,
2013-04-02 04:19:00,64.4,50.7,30.00,NE,45,2.0,3.5,61,0.00,SCT,BKN,0.00,0.0,WeatherDisplay:10.37,2013-04-02 14:19:00,
2013-04-02 04:24:00,64.4,50.7,30.00,NNE,22,1.6,3.1,61,0.00,SCT,BKN,0.00,0.0,WeatherDisplay:10.37,2013-04-02 14:24:00,
2013-04-02 04:29:00,64.6,51.3,30.00,East,90,1.6,2.3,62,0.00,SCT,BKN,0.00,0.0,WeatherDisplay:10.37,2013-04-02 14:29:00,
2013-04-02 04:34:00,64.6,51.3,30.00,NNE,22,2.0,3.5,62,0.00,SCT,BKN,0.00,0.0,WeatherDisplay:10.37,2013-04-02 14:34:00,
2013-04-02 04:39:00,64.4,51.1,30.00,ENE,68,1.4,2.3,62,0.00,SCT,BKN,0.00,0.0,WeatherDisplay:10.37,2013-04-02 14:39:00,
2013-04-02 04:44:00,64.2,51.4,30.00,NE,45,2.0,3.5,63,0.00,SCT,BKN,0.00,0.0,WeatherDisplay:10.37,2013-04-02 14:44:00,
2013-04-02 04:49:00,64.4,51.5,30.03,ENE,68,2.0,4.0,63,0.00,SCT,BKN,0.00,0.0,WeatherDisplay:10.37,2013-04-02 14:49:00,
2013-04-02 04:54:00,64.4,52.0,30.03,ENE,68,2.4,3.1,64,0.00,SCT,BKN,0.00,0.0,WeatherDisplay:10.37,2013-04-02 14:54:00,
2013-04-02 04:59:00,64.4,52.0,30.03,NE,45,2.4,4.6,64,0.00,SCT,BKN,0.00,0.0,WeatherDisplay:10.37,2013-04-02 14:59:00,
2013-04-02 05:04:00,64.4,52.0,30.03,NE,45,1.4,2.4,64,0.00,SCT,BKN,0.00,0.0,WeatherDisplay:10.37,2013-04-02 15:04:00,
2013-04-02 05:09:00,64.2,51.8,30.03,ESE,112,2.0,2.3,64,0.00,SCT,BKN,0.00,0.0,WeatherDisplay:10.37,2013-04-02 15:09:00,
2013-04-02 05:14:00,64.0,51.6,30.03,ENE,68,1.6,3.5,64,0.00,SCT,BKN,0.00,0.0,WeatherDisplay:10.37,2013-04-02 15:14:00,
2013-04-02 05:19:00,64.0,52.0,30.03,East,90,1.2,2.3,65,0.00,SCT,BKN,0.00,0.0,WeatherDisplay:10.37,2013-04-02 15:19:00,
2013-04-02 05:24:00,63.9,51.9,30.03,ENE,68,0.9,1.4,65,0.00,SCT,BKN,0.00,0.0,WeatherDisplay:10.37,2013-04-02 15:24:00,
2013-04-02 05:29:00,64.0,52.9,30.03,ENE,68,2.4,2.4,67,0.00,SCT,BKN,0.00,0.0,WeatherDisplay:10.37,2013-04-02 15:29:00,
2013-04-02 05:34:00,64.0,52.9,30.03,NE,45,1.4,2.4,67,0.00,SCT,BKN,0.00,0.0,WeatherDisplay:10.37,2013-04-02 15:34:00,
2013-04-02 05:39:00,64.0,52.9,30.03,ENE,68,2.2,3.5,67,0.00,SCT,BKN,0.00,0.0,WeatherDisplay:10.37,2013-04-02 15:39:00,
2013-04-02 05:44:00,63.9,52.3,30.03,NE,45,1.2,1.4,66,0.00,SCT,BKN,0.00,0.0,WeatherDisplay:10.37,2013-04-02 15:44:00,
2013-04-02 05:49:00,63.9,52.7,30.03,East,90,2.0,2.3,67,0.00,SCT,BKN,0.00,0.0,WeatherDisplay:10.37,2013-04-02 15:49:00,
2013-04-02 05:54:00,63.7,52.1,30.03,ENE,68,0.0,0.0,66,0.00,SCT,BKN,0.00,0.0,WeatherDisplay:10.37,2013-04-02 15:54:00,
2013-04-02 05:59:00,63.3,52.2,30.03,NE,45,0.0,0.0,67,0.00,SCT,BKN,0.00,0.0,WeatherDisplay:10.37,2013-04-02 15:59:00,
2013-04-02 06:04:00,63.1,52.0,30.03,ENE,68,2.2,3.6,67,0.00,SCT,BKN,0.00,0.0,WeatherDisplay:10.37,2013-04-02 16:04:00,
2013-04-02 06:09:00,63.1,52.4,30.03,ESE,112,2.0,3.8,68,0.00,SCT,BKN,0.00,0.0,WeatherDisplay:10.37,2013-04-02 16:09:00,
2013-04-02 06:14:00,63.5,53.1,30.03,NE,45,1.2,2.3,69,0.00,SCT,BKN,0.00,0.0,WeatherDisplay:10.37,2013-04-02 16:14:00,
2013-04-02 06:19:00,63.5,53.1,30.03,NE,45,2.6,3.5,69,0.00,SCT,BKN,0.00,0.0,WeatherDisplay:10.37,2013-04-02 16:19:00,
2013-04-02 06:24:00,63.7,53.3,30.03,ENE,68,1.6,3.5,69,0.00,SCT,BKN,0.00,0.0,WeatherDisplay:10.37,2013-04-02 16:24:00,
2013-04-02 06:29:00,63.9,53.5,30.03,NE,45,1.6,3.5,69,0.00,SCT,BKN,0.00,0.0,WeatherDisplay:10.37,2013-04-02 16:29:00,
2013-04-02 06:34:00,64.0,54.1,30.06,ENE,68,0.9,1.4,70,0.00,SCT,BKN,0.00,0.0,WeatherDisplay:10.37,2013-04-02 16:34:00,
2013-04-02 06:39:00,64.2,54.2,30.06,East,90,1.4,2.3,70,0.00,SCT,BKN,0.00,0.0,WeatherDisplay:10.37,2013-04-02 16:39:00,
2013-04-02 06:45:00,64.4,54.4,30.06,East,79,2.0,0.0,70,0.00,SCT,BKN,0.00,0.0,WeatherDisplay:10.37,2013-04-02 16:45:00,
2013-04-02 06:50:00,64.4,54.4,30.03,ENE,69,2.0,0.0,70,0.00,SCT,BKN,0.00,0.0,WeatherDisplay:10.37,2013-04-02 16:50:00,
2013-04-02 06:55:00,64.4,54.4,30.03,ENE,64,1.0,0.0,70,0.00,SCT,BKN,0.00,0.0,WeatherDisplay:10.37,2013-04-02 16:55:00,
2013-04-02 07:00:00,64.6,55.0,30.03,ENE,64,1.0,0.0,71,0.00,SCT,BKN,0.00,0.0,WeatherDisplay:10.37,2013-04-02 17:00:00,
2013-04-02 07:05:00,64.4,54.4,30.06,ENE,65,0.0,0.0,70,0.00,SCT,BKN,0.00,0.0,WeatherDisplay:10.37,2013-04-02 17:05:00,
2013-04-02 07:10:00,64.6,54.6,30.06,ENE,58,2.0,0.0,70,0.00,SCT,BKN,0.00,0.0,WeatherDisplay:10.37,2013-04-02 17:10:00,
2013-04-02 07:15:00,64.8,55.1,30.06,NE,52,2.0,0.0,71,0.00,SCT,BKN,0.00,0.0,WeatherDisplay:10.37,2013-04-02 17:15:00,
2013-04-02 07:20:00,64.9,55.3,30.06,NE,48,1.0,0.0,71,0.00,SCT,BKN,0.00,0.0,WeatherDisplay:10.37,2013-04-02 17:20:00,
2013-04-02 07:25:00,64.9,55.3,30.06,NE,48,0.0,0.0,71,0.00,SCT,BKN,0.00,0.0,WeatherDisplay:10.37,2013-04-02 17:25:00,
2013-04-02 07:30:00,65.1,55.4,30.06,North,6,2.0,0.0,71,0.00,SCT,BKN,0.00,0.0,WeatherDisplay:10.37,2013-04-02 17:30:00,
2013-04-02 07:35:00,64.9,54.9,30.06,ENE,59,0.0,0.0,70,0.00,SCT,BKN,0.00,0.0,WeatherDisplay:10.37,2013-04-02 17:35:00,
2013-04-02 07:40:00,64.9,54.9,30.06,East,100,2.0,0.0,70,0.00,SCT,BKN,0.00,0.0,WeatherDisplay:10.37,2013-04-02 17:40:00,
2013-04-02 07:45:00,64.8,54.8,30.06,ENE,67,0.0,0.0,70,0.00,SCT,BKN,0.00,0.0,WeatherDisplay:10.37,2013-04-02 17:45:00,
2013-04-02 07:50:00,64.8,54.7,30.03,ESE,112,0.0,3.5,70,0.00,SCT,BKN,0.00,0.0,WeatherDisplay:10.37,2013-04-02 17:50:00,
2013-04-02 07:55:00,64.6,54.6,30.03,ESE,112,0.9,2.3,70,0.00,SCT,BKN,0.00,0.0,WeatherDisplay:10.37,2013-04-02 17:55:00,
2013-04-02 08:00:00,64.6,54.6,30.03,ESE,112,0.0,1.4,70,0.00,SCT,BKN,0.00,0.0,WeatherDisplay:10.37,2013-04-02 18:00:00,
2013-04-02 08:05:00,64.6,54.6,30.03,East,90,1.4,1.4,70,0.00,SCT,BKN,0.00,0.0,WeatherDisplay:10.37,2013-04-02 18:05:00,
2013-04-02 08:10:00,64.6,54.6,30.03,NW,315,0.0,2.6,70,0.00,SCT,BKN,0.00,0.0,WeatherDisplay:10.37,2013-04-02 18:10:00,
2013-04-02 08:15:00,64.8,54.7,30.03,NW,315,2.0,3.5,70,0.00,SCT,BKN,0.00,0.0,WeatherDisplay:10.37,2013-04-02 18:15:00,
2013-04-02 08:20:00,65.1,55.1,30.06,ENE,68,0.0,2.3,70,0.00,SCT,BKN,0.00,0.0,WeatherDisplay:10.37,2013-04-02 18:20:00,
2013-04-02 08:25:00,65.5,55.0,30.06,ENE,68,0.0,3.5,69,0.00,SCT,BKN,0.00,0.0,WeatherDisplay:10.37,2013-04-02 18:25:00,
2013-04-02 08:30:00,65.7,55.2,30.06,NE,45,1.4,2.3,69,0.00,SCT,BKN,0.00,0.0,WeatherDisplay:10.37,2013-04-02 18:30:00,
2013-04-02 08:35:00,66.0,55.6,30.06,ENE,68,0.9,1.2,69,0.00,SCT,BKN,0.00,0.0,WeatherDisplay:10.37,2013-04-02 18:35:00,
2013-04-02 08:40:00,66.2,55.7,30.06,NE,50,1.0,0.0,69,0.00,SCT,BKN,0.00,0.0,WeatherDisplay:10.37,2013-04-02 18:40:00,
2013-04-02 08:45:00,66.6,55.3,30.06,NE,51,2.0,0.0,67,0.00,SCT,BKN,0.00,0.0,WeatherDisplay:10.37,2013-04-02 18:45:00,
2013-04-02 08:50:00,66.7,55.4,30.06,ENE,57,2.0,0.0,67,0.00,SCT,BKN,0.00,0.0,WeatherDisplay:10.37,2013-04-02 18:50:00,
2013-04-02 08:55:00,66.9,55.2,30.06,NE,51,3.0,0.0,66,0.00,SCT,BKN,0.00,0.0,WeatherDisplay:10.37,2013-04-02 18:55:00,
2013-04-02 09:00:00,67.1,54.9,30.06,NE,50,3.0,0.0,65,0.00,SCT,BKN,0.00,0.0,WeatherDisplay:10.37,2013-04-02 19:00:00,
2013-04-02 09:05:00,67.3,55.1,30.06,NE,48,3.0,0.0,65,0.00,SCT,BKN,0.00,0.0,WeatherDisplay:10.37,2013-04-02 19:05:00,
2013-04-02 09:10:00,67.5,54.9,30.06,NE,47,2.0,0.0,64,0.00,SCT,BKN,0.00,0.0,WeatherDisplay:10.37,2013-04-02 19:10:00,
2013-04-02 09:15:00,67.6,55.0,30.06,NE,42,1.0,0.0,64,0.00,SCT,BKN,0.00,0.0,WeatherDisplay:10.37,2013-04-02 19:15:00,
2013-04-02 09:20:00,67.7,54.7,30.09,North,4,3.0,0.0,63,0.00,SCT,BKN,0.00,125.0,WeatherDisplay:10.37,2013-04-02 19:20:00,
2013-04-02 09:25:00,68.0,54.5,30.09,NE,44,3.0,0.0,62,0.00,SCT,BKN,0.00,125.0,WeatherDisplay:10.37,2013-04-02 19:25:00,
2013-04-02 09:30:00,68.2,54.2,30.09,ENE,68,4.3,5.8,61,0.00,SCT,BKN,0.00,125.0,WeatherDisplay:10.37,2013-04-02 19:30:00,
2013-04-02 09:35:00,68.2,53.8,30.09,East,90,3.3,4.6,60,0.00,SCT,BKN,0.00,250.0,WeatherDisplay:10.37,2013-04-02 19:35:00,
2013-04-02 09:40:00,68.2,53.8,30.09,NE,45,3.6,5.8,60,0.00,SCT,BKN,0.00,125.0,WeatherDisplay:10.37,2013-04-02 19:40:00,
2013-04-02 09:46:00,68.4,53.5,30.09,ENE,68,3.8,4.6,59,0.00,SCT,BKN,0.00,125.0,WeatherDisplay:10.37,2013-04-02 19:46:00,
2013-04-02 09:51:00,68.4,53.0,30.09,NE,45,3.6,5.8,58,0.00,SCT,BKN,0.00,125.0,WeatherDisplay:10.37,2013-04-02 19:51:00,
2013-04-02 09:56:00,68.5,52.7,30.09,ENE,68,2.4,2.4,57,0.00,SCT,BKN,0.00,125.0,WeatherDisplay:10.37,2013-04-02 19:56:00,
2013-04-02 10:01:00,68.5,52.2,30.09,NNE,22,4.7,5.6,56,0.00,SCT,BKN,0.00,125.0,WeatherDisplay:10.37,2013-04-02 20:01:00,
2013-04-02 10:07:00,68.7,52.4,30.09,NE,45,4.3,4.6,56,0.00,SCT,BKN,0.00,125.0,WeatherDisplay:10.37,2013-04-02 20:07:00,
2013-04-02 10:12:00,68.9,53.0,30.09,ENE,68,4.5,5.8,57,0.00,SCT,BKN,0.00,250.0,WeatherDisplay:10.37,2013-04-02 20:12:00,
2013-04-02 10:17:00,69.3,52.4,30.09,East,90,4.0,4.6,55,0.00,SCT,BKN,0.00,125.0,WeatherDisplay:10.37,2013-04-02 20:17:00,
2013-04-02 10:22:00,69.4,52.1,30.09,NNE,22,3.3,5.8,54,0.00,SCT,BKN,0.00,125.0,WeatherDisplay:10.37,2013-04-02 20:22:00,
2013-04-02 10:27:00,69.8,52.9,30.09,North,0,1.6,4.3,55,0.00,SCT,BKN,0.00,125.0,WeatherDisplay:10.37,2013-04-02 20:27:00,
2013-04-02 10:32:00,69.6,51.7,30.09,NNE,22,2.9,4.6,53,0.00,SCT,BKN,0.00,125.0,WeatherDisplay:10.37,2013-04-02 20:32:00,
2013-04-02 10:37:00,70.0,52.6,30.09,NW,315,3.3,4.9,54,0.00,SCT,BKN,0.00,375.0,WeatherDisplay:10.37,2013-04-02 20:37:00,
2013-04-02 10:42:00,70.2,51.7,30.09,NE,45,4.0,5.8,52,0.00,SCT,BKN,0.00,250.0,WeatherDisplay:10.37,2013-04-02 20:42:00,
2013-04-02 10:47:00,70.7,52.7,30.09,NNW,338,1.4,2.6,53,0.00,SCT,BKN,0.00,250.0,WeatherDisplay:10.37,2013-04-02 20:47:00,
2013-04-02 10:52:00,71.1,53.1,30.09,East,90,2.4,3.5,53,0.00,SCT,BKN,0.00,250.0,WeatherDisplay:10.37,2013-04-02 20:52:00,
2013-04-02 10:58:00,71.6,52.0,30.09,NNE,22,3.8,4.6,50,0.00,SCT,BKN,0.00,250.0,WeatherDisplay:10.37,2013-04-02 20:58:00,
2013-04-02 11:03:00,72.0,52.3,30.09,NNW,338,2.0,5.8,50,0.00,SCT,BKN,0.00,625.0,WeatherDisplay:10.37,2013-04-02 21:03:00,
2013-04-02 11:08:00,72.7,53.5,30.09,NE,45,4.5,5.9,51,0.00,SCT,BKN,0.00,875.0,WeatherDisplay:10.37,2013-04-02 21:08:00,
2013-04-02 11:13:00,73.0,52.2,30.09,East,90,2.4,2.6,48,0.00,SCT,BKN,0.00,500.0,WeatherDisplay:10.37,2013-04-02 21:13:00,
2013-04-02 11:19:00,73.9,53.6,30.09,ENE,68,2.0,2.3,49,0.00,SCT,BKN,0.00,250.0,WeatherDisplay:10.37,2013-04-02 21:19:00,
2013-04-02 11:24:00,73.9,53.0,30.09,NE,45,3.1,4.6,48,0.00,SCT,BKN,0.00,250.0,WeatherDisplay:10.37,2013-04-02 21:24:00,
2013-04-02 11:29:00,73.9,53.0,30.09,ENE,68,3.1,3.5,48,0.00,SCT,BKN,0.00,250.0,WeatherDisplay:10.37,2013-04-02 21:29:00,
2013-04-02 11:34:00,73.9,52.4,30.09,North,0,2.9,4.6,47,0.00,SCT,BKN,0.00,250.0,WeatherDisplay:10.37,2013-04-02 21:34:00,
2013-04-02 11:39:00,73.9,51.8,30.09,ENE,68,1.4,3.5,46,0.00,SCT,BKN,0.00,1125.0,WeatherDisplay:10.37,2013-04-02 21:39:00,
2013-04-02 11:44:00,74.7,52.5,30.09,NE,45,1.6,1.6,46,0.00,SCT,BKN,0.00,1250.0,WeatherDisplay:10.37,2013-04-02 21:44:00,
2013-04-02 11:49:00,76.8,53.3,30.06,NNW,338,2.2,3.8,44,0.00,SCT,BKN,0.00,1375.0,WeatherDisplay:10.37,2013-04-02 21:49:00,
2013-04-02 11:54:00,76.5,52.3,30.06,East,90,5.6,8.1,43,0.00,SCT,BKN,0.00,1289.0,WeatherDisplay:10.37,2013-04-02 21:54:00,
2013-04-02 11:59:00,78.4,54.7,30.06,North,0,2.0,2.6,44,0.00,SCT,BKN,0.00,1375.0,WeatherDisplay:10.37,2013-04-02 21:59:00,
2013-04-02 12:04:00,78.4,53.4,30.06,NE,45,3.1,5.8,42,0.00,SCT,BKN,0.00,1375.0,WeatherDisplay:10.37,2013-04-02 22:04:00,
2013-04-02 12:09:00,78.6,53.6,30.06,ENE,68,2.9,5.8,42,0.00,SCT,BKN,0.00,1375.0,WeatherDisplay:10.37,2013-04-02 22:09:00,
2013-04-02 12:14:00,78.1,53.1,30.06,ENE,68,4.3,4.9,42,0.00,SCT,BKN,0.00,1375.0,WeatherDisplay:10.37,2013-04-02 22:14:00,
2013-04-02 12:19:00,79.3,54.3,30.06,East,90,2.4,3.5,42,0.00,SCT,BKN,0.00,1500.0,WeatherDisplay:10.37,2013-04-02 22:19:00,
2013-04-02 12:25:00,80.0,54.2,30.06,ENE,57,2.0,0.0,41,0.00,SCT,BKN,0.00,1311.0,WeatherDisplay:10.37,2013-04-02 22:25:00,
2013-04-02 12:30:00,80.2,54.3,30.06,NE,51,2.0,0.0,41,0.00,SCT,BKN,0.00,1313.0,WeatherDisplay:10.37,2013-04-02 22:30:00,
2013-04-02 12:36:00,79.5,53.1,30.06,NE,45,4.3,6.9,40,0.00,SCT,BKN,0.00,1500.0,WeatherDisplay:10.37,2013-04-02 22:36:00,
2013-04-02 12:41:00,80.8,54.2,30.06,NE,45,3.6,4.6,40,0.00,SCT,BKN,0.00,1500.0,WeatherDisplay:10.37,2013-04-02 22:41:00,
2013-04-02 12:46:00,81.1,53.8,30.06,ENE,68,2.9,3.5,39,0.00,SCT,BKN,0.00,1500.0,WeatherDisplay:10.37,2013-04-02 22:46:00,
2013-04-02 12:51:00,80.6,54.0,30.06,NE,45,4.0,5.9,40,0.00,SCT,BKN,0.00,1500.0,WeatherDisplay:10.37,2013-04-02 22:51:00,
2013-04-02 12:56:00,81.0,53.7,30.06,NNE,22,4.0,4.6,39,0.00,SCT,BKN,0.00,1500.0,WeatherDisplay:10.37,2013-04-02 22:56:00,
2013-04-02 13:01:00,81.9,54.5,30.06,NE,45,3.6,4.6,39,0.00,SCT,BKN,0.00,1309.0,WeatherDisplay:10.37,2013-04-02 23:01:00,
2013-04-02 13:06:00,82.4,54.2,30.06,ESE,112,3.1,4.6,38,0.00,SCT,BKN,0.00,1375.0,WeatherDisplay:10.37,2013-04-02 23:06:00,
2013-04-02 13:11:00,83.1,54.9,30.06,North,0,3.3,4.6,38,0.00,SCT,BKN,0.00,1375.0,WeatherDisplay:10.37,2013-04-02 23:11:00,
2013-04-02 13:20:00,83.7,54.6,30.09,East,90,3.1,3.5,37,0.00,SCT,BKN,0.00,1250.0,WeatherDisplay:10.37,2013-04-02 23:20:00,
2013-04-02 13:25:00,84.2,54.4,30.09,East,90,2.9,4.0,36,0.00,SCT,BKN,0.00,1250.0,WeatherDisplay:10.37,2013-04-02 23:25:00,
2013-04-02 13:30:00,84.4,54.5,30.09,NE,45,3.8,5.4,36,0.00,SCT,BKN,0.00,1375.0,WeatherDisplay:10.37,2013-04-02 23:30:00,
2013-04-02 13:35:00,84.0,54.2,30.06,NNE,17,3.0,0.0,36,0.00,SCT,BKN,0.00,1279.0,WeatherDisplay:10.37,2013-04-02 23:35:00,
2013-04-02 13:40:00,86.1,55.2,30.06,North,9,2.0,0.0,35,0.00,SCT,BKN,0.00,1273.0,WeatherDisplay:10.37,2013-04-02 23:40:00,
2013-04-02 13:45:00,86.1,54.5,30.06,NE,40,3.0,0.0,34,0.00,SCT,BKN,0.00,1265.0,WeatherDisplay:10.37,2013-04-02 23:45:00,
2013-04-02 13:50:00,85.3,53.8,30.06,NNE,31,3.0,0.0,34,0.00,SCT,BKN,0.00,1250.0,WeatherDisplay:10.37,2013-04-02 23:50:00,
2013-04-02 13:55:00,84.6,53.1,30.06,NE,45,3.6,5.8,34,0.00,SCT,BKN,0.00,1375.0,WeatherDisplay:10.37,2013-04-02 23:55:00,
2013-04-02 14:00:00,81.9,51.5,30.06,NNE,22,3.6,4.6,35,0.00,SCT,BKN,0.00,250.0,WeatherDisplay:10.37,2013-04-03 00:00:00,
2013-04-02 14:05:00,78.6,51.6,30.03,NE,45,1.2,2.9,39,0.00,SCT,BKN,0.00,125.0,WeatherDisplay:10.37,2013-04-03 00:05:00,
2013-04-02 14:10:00,76.8,51.3,30.03,NE,45,2.0,3.5,41,0.00,SCT,BKN,0.00,125.0,WeatherDisplay:10.37,2013-04-03 00:10:00,
2013-04-02 14:15:00,75.7,51.0,30.03,SW,225,1.6,3.5,42,0.00,SCT,BKN,0.00,125.0,WeatherDisplay:10.37,2013-04-03 00:15:00,
2013-04-02 14:20:00,74.7,51.9,30.03,WNW,292,3.1,3.5,45,0.00,SCT,BKN,0.00,125.0,WeatherDisplay:10.37,2013-04-03 00:20:00,
2013-04-02 14:26:00,74.3,52.8,30.03,WSW,248,2.9,3.5,47,0.00,SCT,BKN,0.00,125.0,WeatherDisplay:10.37,2013-04-03 00:26:00,
2013-04-02 14:31:00,73.9,51.8,30.03,South,180,2.2,5.6,46,0.00,SCT,BKN,0.00,0.0,WeatherDisplay:10.37,2013-04-03 00:31:00,
2013-04-02 14:36:00,73.0,53.3,30.03,SW,225,2.0,3.5,50,0.00,SCT,BKN,0.00,0.0,WeatherDisplay:10.37,2013-04-03 00:36:00,
2013-04-02 14:41:00,72.9,52.6,30.03,NNE,22,2.4,3.5,49,0.00,SCT,BKN,0.00,0.0,WeatherDisplay:10.37,2013-04-03 00:41:00,
2013-04-02 14:46:00,73.6,52.7,30.03,East,90,0.0,1.2,48,0.00,SCT,BKN,0.00,125.0,WeatherDisplay:10.37,2013-04-03 00:46:00,
2013-04-02 14:52:00,73.6,52.1,30.03,NE,45,2.2,3.5,47,0.00,SCT,BKN,0.00,125.0,WeatherDisplay:10.37,2013-04-03 00:52:00,
2013-04-02 14:57:00,73.0,52.2,30.03,NE,45,1.6,3.5,48,0.00,SCT,BKN,0.00,125.0,WeatherDisplay:10.37,2013-04-03 00:57:00,
2013-04-02 15:03:00,72.1,51.9,30.03,NE,45,2.4,5.8,49,0.00,SCT,BKN,0.00,0.0,WeatherDisplay:10.37,2013-04-03 01:03:00,
2013-04-02 15:08:00,71.8,51.6,30.03,NE,45,3.1,4.0,49,0.00,SCT,BKN,0.00,125.0,WeatherDisplay:10.37,2013-04-03 01:08:00,
2013-04-02 15:13:00,71.8,52.7,30.03,NNE,22,4.3,5.8,51,0.00,SCT,BKN,0.00,125.0,WeatherDisplay:10.37,2013-04-03 01:13:00,
2013-04-02 15:18:00,72.0,52.3,30.03,NNE,22,2.6,5.6,50,0.00,SCT,BKN,0.00,0.0,WeatherDisplay:10.37,2013-04-03 01:18:00,
2013-04-02 15:23:00,71.2,51.6,30.03,NE,45,3.1,4.6,50,0.00,SCT,BKN,0.00,0.0,WeatherDisplay:10.37,2013-04-03 01:23:00,
2013-04-02 15:28:00,71.1,52.0,30.03,ENE,68,2.6,4.6,51,0.00,SCT,BKN,0.00,0.0,WeatherDisplay:10.37,2013-04-03 01:28:00,
2013-04-02 15:33:00,70.9,51.8,30.03,ENE,68,3.8,5.8,51,0.00,SCT,BKN,0.00,125.0,WeatherDisplay:10.37,2013-04-03 01:33:00,
2013-04-02 15:38:00,71.2,52.7,30.03,NE,45,2.4,2.9,52,0.00,SCT,BKN,0.00,125.0,WeatherDisplay:10.37,2013-04-03 01:38:00,
2013-04-02 15:43:00,71.1,51.5,30.03,ENE,68,3.3,5.8,50,0.00,SCT,BKN,0.00,125.0,WeatherDisplay:10.37,2013-04-03 01:43:00,
2013-04-02 15:48:00,71.1,52.0,30.03,NE,45,3.3,4.6,51,0.00,SCT,BKN,0.00,125.0,WeatherDisplay:10.37,2013-04-03 01:48:00,
2013-04-02 15:53:00,71.1,52.0,30.03,NE,45,2.0,2.3,51,0.00,SCT,BKN,0.00,125.0,WeatherDisplay:10.37,2013-04-03 01:53:00,
2013-04-02 15:58:00,74.5,54.6,30.03,East,90,2.2,2.6,50,0.00,SCT,BKN,0.00,625.0,WeatherDisplay:10.37,2013-04-03 01:58:00,
2013-04-02 16:05:00,77.2,53.6,30.03,NE,45,4.3,5.8,44,0.00,SCT,BKN,0.00,500.0,WeatherDisplay:10.37,2013-04-03 02:05:00,
2013-04-02 16:42:00,76.1,52.0,30.06,North,0,3.8,5.8,43,0.00,SCT,BKN,0.00,250.0,WeatherDisplay:10.37,2013-04-03 02:42:00,
2013-04-02 16:47:00,76.6,52.5,30.06,NE,45,2.4,3.5,43,0.00,SCT,BKN,0.00,125.0,WeatherDisplay:10.37,2013-04-03 02:47:00,
2013-04-02 16:53:00,76.8,52.6,30.06,North,0,2.2,4.9,43,0.00,SCT,BKN,0.00,125.0,WeatherDisplay:10.37,2013-04-03 02:53:00,
2013-04-02 16:58:00,76.8,52.6,30.06,NNE,22,3.3,4.6,43,0.00,SCT,BKN,0.00,125.0,WeatherDisplay:10.37,2013-04-03 02:58:00,
2013-04-02 17:03:00,76.3,52.1,30.06,NNE,22,3.1,4.6,43,0.00,SCT,BKN,0.00,125.0,WeatherDisplay:10.37,2013-04-03 03:03:00,
2013-04-02 17:08:00,75.7,51.6,30.06,ENE,68,4.9,6.0,43,0.00,SCT,BKN,0.00,125.0,WeatherDisplay:10.37,2013-04-03 03:08:00,
2013-04-02 17:13:00,75.2,51.2,30.06,NE,45,3.3,4.6,43,0.00,SCT,BKN,0.00,125.0,WeatherDisplay:10.37,2013-04-03 03:13:00,
2013-04-02 17:19:00,74.7,51.3,30.06,NE,45,4.0,4.6,44,0.00,SCT,BKN,0.00,0.0,WeatherDisplay:10.37,2013-04-03 03:19:00,
2013-04-02 17:24:00,74.1,52.0,30.06,NE,45,4.3,4.6,46,0.00,SCT,BKN,0.00,0.0,WeatherDisplay:10.37,2013-04-03 03:24:00,
2013-04-02 17:29:00,73.8,52.3,30.06,NE,45,2.9,3.5,47,0.00,SCT,BKN,0.00,0.0,WeatherDisplay:10.37,2013-04-03 03:29:00,
2013-04-02 17:34:00,73.6,52.1,30.06,NE,45,3.8,4.6,47,0.00,SCT,BKN,0.00,0.0,WeatherDisplay:10.37,2013-04-03 03:34:00,
2013-04-02 17:39:00,73.0,51.6,30.06,NE,45,3.1,4.6,47,0.00,SCT,BKN,0.00,0.0,WeatherDisplay:10.37,2013-04-03 03:39:00,
2013-04-02 17:45:00,72.5,51.7,30.06,NNE,22,3.1,4.6,48,0.00,SCT,BKN,0.00,0.0,WeatherDisplay:10.37,2013-04-03 03:45:00,
2013-04-02 17:50:00,72.1,51.9,30.06,NNE,22,3.6,4.9,49,0.00,SCT,BKN,0.00,0.0,WeatherDisplay:10.37,2013-04-03 03:50:00,
2013-04-02 17:55:00,71.6,52.0,30.06,NE,45,3.3,6.0,50,0.00,SCT,BKN,0.00,0.0,WeatherDisplay:10.37,2013-04-03 03:55:00,
2013-04-02 18:00:00,71.2,52.2,30.06,NE,45,3.8,5.8,51,0.00,SCT,BKN,0.00,0.0,WeatherDisplay:10.37,2013-04-03 04:00:00,
2013-04-02 18:02:00,71.2,52.2,30.06,NE,45,3.3,3.8,51,0.00,SCT,BKN,0.00,0.0,WeatherDisplay:10.37,2013-04-03 04:02:00,
2013-04-02 18:03:00,71.2,52.2,30.06,NE,45,3.1,4.6,51,0.00,SCT,BKN,0.00,0.0,WeatherDisplay:10.37,2013-04-03 04:03:00,
2013-04-02 18:09:00,71.1,52.5,30.06,West,270,2.9,4.6,52,0.00,SCT,BKN,0.00,0.0,WeatherDisplay:10.37,2013-04-03 04:09:00,
2013-04-02 18:14:00,70.7,51.7,30.06,NNE,22,1.6,3.6,51,0.00,SCT,BKN,0.00,0.0,WeatherDisplay:10.37,2013-04-03 04:14:00,
2013-04-02 18:19:00,70.2,51.7,30.06,NE,45,2.6,3.5,52,0.00,SCT,BKN,0.00,0.0,WeatherDisplay:10.37,2013-04-03 04:19:00,
2013-04-02 18:24:00,69.1,51.2,30.06,NE,45,1.4,4.6,53,0.00,SCT,BKN,0.00,0.0,WeatherDisplay:10.37,2013-04-03 04:24:00,
2013-04-02 18:29:00,68.5,51.7,30.06,NE,45,2.9,3.8,55,0.00,SCT,BKN,0.00,0.0,WeatherDisplay:10.37,2013-04-03 04:29:00,
2013-04-02 18:34:00,68.0,51.7,30.06,NE,45,3.3,5.4,56,0.00,SCT,BKN,0.00,0.0,WeatherDisplay:10.37,2013-04-03 04:34:00,
2013-04-02 18:39:00,67.6,52.3,30.06,East,90,4.5,5.8,58,0.00,SCT,BKN,0.00,0.0,WeatherDisplay:10.37,2013-04-03 04:39:00,
2013-04-02 18:44:00,67.5,52.6,30.06,NE,45,3.6,5.8,59,0.00,SCT,BKN,0.00,0.0,WeatherDisplay:10.37,2013-04-03 04:44:00,
2013-04-02 18:49:00,67.3,52.9,30.06,ENE,68,4.7,6.9,60,0.00,SCT,BKN,0.00,0.0,WeatherDisplay:10.37,2013-04-03 04:49:00,
2013-04-02 18:55:00,67.0,52.7,30.06,NE,43,2.0,0.0,60,0.00,SCT,BKN,0.00,0.0,WeatherDisplay:10.37,2013-04-03 04:55:00,
2013-04-02 19:01:00,66.7,53.3,30.06,East,90,2.0,3.5,62,0.00,SCT,BKN,0.00,0.0,WeatherDisplay:10.37,2013-04-03 05:01:00,
2013-04-02 19:06:00,66.6,52.7,30.06,NE,45,1.2,2.3,61,0.00,SCT,BKN,0.00,0.0,WeatherDisplay:10.37,2013-04-03 05:06:00,
2013-04-02 19:11:00,66.4,53.4,30.06,East,90,1.2,2.3,63,0.00,SCT,BKN,0.00,0.0,WeatherDisplay:10.37,2013-04-03 05:11:00,
2013-04-02 19:17:00,66.2,54.5,30.06,East,90,4.3,5.8,66,0.00,SCT,BKN,0.00,0.0,WeatherDisplay:10.37,2013-04-03 05:17:00,
2013-04-02 19:22:00,66.4,55.1,30.03,ENE,68,4.0,4.6,67,0.00,SCT,BKN,0.00,0.0,WeatherDisplay:10.37,2013-04-03 05:22:00,
2013-04-02 19:27:00,66.4,55.1,30.03,NE,45,4.9,5.9,67,0.00,SCT,BKN,0.00,0.0,WeatherDisplay:10.37,2013-04-03 05:27:00,
2013-04-02 19:32:00,66.6,55.7,30.03,ENE,68,6.0,6.9,68,0.00,SCT,BKN,0.00,0.0,WeatherDisplay:10.37,2013-04-03 05:32:00,
2013-04-02 19:37:00,66.6,55.7,30.06,ENE,68,4.5,6.9,68,0.00,SCT,BKN,0.00,0.0,WeatherDisplay:10.37,2013-04-03 05:37:00,
2013-04-02 19:42:00,66.6,55.7,30.06,ENE,68,4.3,4.9,68,0.00,SCT,BKN,0.00,0.0,WeatherDisplay:10.37,2013-04-03 05:42:00,
2013-04-02 19:47:00,66.4,55.1,30.06,ENE,68,3.1,5.6,67,0.00,SCT,BKN,0.00,0.0,WeatherDisplay:10.37,2013-04-03 05:47:00,
2013-04-02 19:52:00,66.4,55.5,30.06,NE,45,3.8,4.7,68,0.00,SCT,BKN,0.00,0.0,WeatherDisplay:10.37,2013-04-03 05:52:00,
2013-04-02 19:57:00,66.4,55.5,30.06,NE,45,3.1,4.6,68,0.00,SCT,BKN,0.00,0.0,WeatherDisplay:10.37,2013-04-03 05:57:00,
2013-04-02 20:02:00,66.2,55.3,30.09,NE,45,3.1,5.8,68,0.00,SCT,BKN,0.00,0.0,WeatherDisplay:10.37,2013-04-03 06:02:00,
2013-04-02 20:07:00,66.2,55.3,30.09,ENE,68,3.3,4.6,68,0.00,SCT,BKN,0.00,0.0,WeatherDisplay:10.37,2013-04-03 06:07:00,
2013-04-02 20:12:00,66.2,55.3,30.09,ENE,68,3.6,4.6,68,0.00,SCT,BKN,0.00,0.0,WeatherDisplay:10.37,2013-04-03 06:12:00,
2013-04-02 20:17:00,66.0,55.6,30.09,NE,45,3.6,4.6,69,0.00,SCT,BKN,0.00,0.0,WeatherDisplay:10.37,2013-04-03 06:17:00,
2013-04-02 20:22:00,66.0,55.6,30.09,NE,45,4.3,5.8,69,0.00,SCT,BKN,0.00,0.0,WeatherDisplay:10.37,2013-04-03 06:22:00,
2013-04-02 20:27:00,66.0,55.6,30.09,NE,45,2.4,3.5,69,0.00,SCT,BKN,0.00,0.0,WeatherDisplay:10.37,2013-04-03 06:27:00,
2013-04-02 20:32:00,65.8,55.4,30.09,NE,45,3.6,5.8,69,0.00,SCT,BKN,0.00,0.0,WeatherDisplay:10.37,2013-04-03 06:32:00,
2013-04-02 20:37:00,65.7,55.2,30.09,ENE,68,2.9,3.5,69,0.00,SCT,BKN,0.00,0.0,WeatherDisplay:10.37,2013-04-03 06:37:00,
2013-04-02 20:42:00,65.8,55.4,30.09,NE,45,3.3,4.7,69,0.00,SCT,BKN,0.00,0.0,WeatherDisplay:10.37,2013-04-03 06:42:00,
2013-04-02 20:47:00,65.7,55.6,30.09,ENE,68,3.1,4.6,70,0.00,SCT,BKN,0.00,0.0,WeatherDisplay:10.37,2013-04-03 06:47:00,
2013-04-02 20:52:00,65.7,55.6,30.09,NE,45,3.6,5.8,70,0.00,SCT,BKN,0.00,0.0,WeatherDisplay:10.37,2013-04-03 06:52:00,
2013-04-02 20:57:00,65.8,55.8,30.09,East,90,3.8,3.8,70,0.00,SCT,BKN,0.00,0.0,WeatherDisplay:10.37,2013-04-03 06:57:00,
2013-04-02 21:02:00,65.7,55.6,30.12,ENE,68,2.0,3.5,70,0.00,SCT,BKN,0.00,0.0,WeatherDisplay:10.37,2013-04-03 07:02:00,
2013-04-02 21:07:00,65.8,55.8,30.12,ENE,68,3.1,3.5,70,0.00,SCT,BKN,0.00,0.0,WeatherDisplay:10.37,2013-04-03 07:07:00,
2013-04-02 21:12:00,65.8,55.8,30.12,NE,45,2.2,3.5,70,0.00,SCT,BKN,0.00,0.0,WeatherDisplay:10.37,2013-04-03 07:12:00,
2013-04-02 21:17:00,65.8,56.2,30.15,ENE,68,2.9,3.5,71,0.00,SCT,BKN,0.00,0.0,WeatherDisplay:10.37,2013-04-03 07:17:00,
2013-04-02 21:22:00,65.8,56.2,30.15,NE,45,3.6,5.8,71,0.00,SCT,BKN,0.00,0.0,WeatherDisplay:10.37,2013-04-03 07:22:00,
2013-04-02 21:27:00,65.8,56.2,30.15,NE,45,2.4,3.5,71,0.00,SCT,BKN,0.00,0.0,WeatherDisplay:10.37,2013-04-03 07:27:00,
2013-04-02 21:32:00,65.8,56.2,30.12,NE,45,3.3,5.8,71,0.00,SCT,BKN,0.00,0.0,WeatherDisplay:10.37,2013-04-03 07:32:00,
2013-04-02 21:37:00,65.8,56.2,30.12,NNE,22,2.6,3.6,71,0.00,SCT,BKN,0.00,0.0,WeatherDisplay:10.37,2013-04-03 07:37:00,
2013-04-02 21:42:00,65.7,56.0,30.12,ENE,68,3.8,4.6,71,0.00,SCT,BKN,0.00,0.0,WeatherDisplay:10.37,2013-04-03 07:42:00,
2013-04-02 21:47:00,65.7,56.0,30.12,East,90,3.1,3.8,71,0.00,SCT,BKN,0.00,0.0,WeatherDisplay:10.37,2013-04-03 07:47:00,
2013-04-02 21:52:00,65.7,56.0,30.12,ENE,68,2.6,3.5,71,0.00,SCT,BKN,0.00,0.0,WeatherDisplay:10.37,2013-04-03 07:52:00,
2013-04-02 21:57:00,65.7,56.0,30.12,ENE,68,2.6,2.9,71,0.00,SCT,BKN,0.00,0.0,WeatherDisplay:10.37,2013-04-03 07:57:00,
2013-04-02 22:02:00,65.7,56.0,30.09,ENE,68,3.6,4.6,71,0.00,SCT,BKN,0.00,0.0,WeatherDisplay:10.37,2013-04-03 08:02:00,
2013-04-02 22:07:00,65.8,56.2,30.09,NE,45,3.1,4.0,71,0.00,SCT,BKN,0.00,0.0,WeatherDisplay:10.37,2013-04-03 08:07:00,
2013-04-02 22:12:00,65.8,56.2,30.09,ENE,68,3.8,4.6,71,0.00,SCT,BKN,0.00,0.0,WeatherDisplay:10.37,2013-04-03 08:12:00,
2013-04-02 22:17:00,66.0,56.3,30.12,ENE,68,4.7,5.8,71,0.00,SCT,BKN,0.00,0.0,WeatherDisplay:10.37,2013-04-03 08:17:00,
2013-04-02 22:22:00,66.0,56.0,30.12,NE,45,3.8,5.9,70,0.00,SCT,BKN,0.00,0.0,WeatherDisplay:10.37,2013-04-03 08:22:00,
2013-04-02 22:27:00,66.0,56.0,30.12,NE,45,3.8,4.7,70,0.00,SCT,BKN,0.00,0.0,WeatherDisplay:10.37,2013-04-03 08:27:00,
2013-04-02 22:32:00,66.0,55.6,30.09,ENE,68,2.4,3.5,69,0.00,SCT,BKN,0.00,0.0,WeatherDisplay:10.37,2013-04-03 08:32:00,
2013-04-02 22:37:00,66.0,56.0,30.09,NE,45,3.6,4.6,70,0.00,SCT,BKN,0.00,0.0,WeatherDisplay:10.37,2013-04-03 08:37:00,
2013-04-02 22:42:00,65.8,55.4,30.09,NE,45,2.0,2.9,69,0.00,SCT,BKN,0.00,0.0,WeatherDisplay:10.37,2013-04-03 08:42:00,
2013-04-02 22:47:00,65.8,55.8,30.12,ENE,68,2.6,4.6,70,0.00,SCT,BKN,0.00,0.0,WeatherDisplay:10.37,2013-04-03 08:47:00,
2013-04-02 22:52:00,65.8,55.4,30.12,ENE,68,4.5,5.8,69,0.00,SCT,BKN,0.00,0.0,WeatherDisplay:10.37,2013-04-03 08:52:00,
2013-04-02 22:57:00,65.8,55.4,30.12,NE,45,3.8,4.0,69,0.00,SCT,BKN,0.00,0.0,WeatherDisplay:10.37,2013-04-03 08:57:00,
2013-04-02 23:02:00,65.8,55.4,30.09,East,90,2.6,3.5,69,0.00,SCT,BKN,0.00,0.0,WeatherDisplay:10.37,2013-04-03 09:02:00,
2013-04-02 23:07:00,65.8,55.8,30.09,East,90,4.0,5.8,70,0.00,SCT,BKN,0.00,0.0,WeatherDisplay:10.37,2013-04-03 09:07:00,
2013-04-02 23:12:00,65.8,55.8,30.09,NE,45,2.4,3.5,70,0.00,SCT,BKN,0.00,0.0,WeatherDisplay:10.37,2013-04-03 09:12:00,
2013-04-02 23:17:00,65.8,55.8,30.12,NE,45,3.3,4.6,70,0.00,SCT,BKN,0.00,0.0,WeatherDisplay:10.37,2013-04-03 09:17:00,
2013-04-02 23:23:00,65.7,56.0,30.12,NE,45,3.6,4.7,71,0.00,SCT,BKN,0.00,0.0,WeatherDisplay:10.37,2013-04-03 09:23:00,
2013-04-02 23:28:00,65.8,56.2,30.12,NE,45,3.1,4.6,71,0.00,SCT,BKN,0.00,0.0,WeatherDisplay:10.37,2013-04-03 09:28:00,
2013-04-02 23:33:00,65.7,56.0,30.12,NE,45,2.0,4.6,71,0.00,SCT,BKN,0.00,0.0,WeatherDisplay:10.37,2013-04-03 09:33:00,
2013-04-02 23:38:00,65.7,56.0,30.12,NE,45,2.4,5.4,71,0.00,SCT,BKN,0.00,0.0,WeatherDisplay:10.37,2013-04-03 09:38:00,
2013-04-02 23:43:00,65.7,56.0,30.12,NE,45,3.1,4.6,71,0.00,SCT,BKN,0.00,0.0,WeatherDisplay:10.37,2013-04-03 09:43:00,
2013-04-02 23:48:00,65.7,55.6,30.12,East,90,2.4,3.5,70,0.00,SCT,BKN,0.00,0.0,WeatherDisplay:10.37,2013-04-03 09:48:00,
2013-04-02 23:53:00,65.8,56.2,30.12,ENE,68,3.6,5.8,71,0.00,SCT,BKN,0.00,0.0,WeatherDisplay:10.37,2013-04-03 09:53:00,
2013-04-02 23:58:00,65.8,56.2,30.12,ENE,68,3.3,5.8,71,0.00,SCT,BKN,0.00,0.0,WeatherDisplay:10.37,2013-04-03 09:58:00,